createdAt,value
2023-05-07T00:01:39.982Z,19.22
2023-05-07T00:04:13.070Z,19.20
2023-05-07T00:06:47.819Z,19.18
2023-05-07T00:09:21.055Z,19.21
2023-05-07T00:11:53.797Z,19.16
2023-05-07T00:14:26.701Z,19.10
2023-05-07T00:16:59.651Z,19.09
2023-05-07T00:19:32.837Z,19.05
2023-05-07T00:22:06.995Z,18.98
2023-05-07T00:24:40.029Z,18.99
2023-05-07T00:27:12.879Z,19.05
2023-05-07T00:29:45.663Z,19.03
2023-05-07T00:32:18.592Z,18.99
2023-05-07T00:34:52.087Z,18.95
2023-05-07T00:37:26.250Z,18.94
2023-05-07T00:39:59.305Z,18.94
2023-05-07T00:42:34.333Z,18.88
2023-05-07T00:45:10.100Z,18.85
2023-05-07T00:47:43.604Z,18.78
2023-05-07T00:50:16.490Z,18.84
2023-05-07T00:52:51.466Z,18.84
2023-05-07T00:55:25.552Z,18.75
2023-05-07T00:57:58.513Z,18.74
2023-05-07T01:00:31.154Z,18.76
2023-05-07T01:03:05.223Z,18.70
2023-05-07T01:05:38.658Z,18.71
2023-05-07T01:08:14.342Z,18.71
2023-05-07T01:10:48.095Z,18.74
2023-05-07T01:13:22.094Z,18.72
2023-05-07T01:15:55.113Z,18.71
2023-05-07T01:18:28.323Z,18.63
2023-05-07T01:21:03.782Z,18.65
2023-05-07T01:23:38.581Z,18.67
2023-05-07T01:26:11.517Z,18.63
2023-05-07T01:28:44.608Z,18.61
2023-05-07T01:31:19.140Z,18.54
2023-05-07T01:33:53.237Z,18.55
2023-05-07T01:36:28.300Z,18.57
2023-05-07T01:39:04.139Z,18.49
2023-05-07T01:41:37.641Z,18.45
2023-05-07T01:44:14.556Z,18.44
2023-05-07T01:46:48.479Z,18.36
2023-05-07T01:49:21.849Z,18.36
2023-05-07T01:51:54.751Z,18.36
2023-05-07T01:54:29.741Z,18.36
2023-05-07T01:57:04.093Z,18.37
2023-05-07T01:59:37.213Z,18.32
2023-05-07T02:02:10.068Z,18.33
2023-05-07T02:04:46.222Z,18.34
2023-05-07T02:07:20.005Z,18.29
2023-05-07T02:09:54.776Z,18.27
2023-05-07T02:12:28.575Z,18.27
2023-05-07T02:15:01.235Z,18.23
2023-05-07T02:17:34.280Z,18.20
2023-05-07T02:20:14.503Z,18.20
2023-05-07T02:22:48.474Z,18.20
2023-05-07T02:25:24.439Z,18.19
2023-05-07T02:27:57.267Z,18.17
2023-05-07T02:30:40.081Z,18.21
2023-05-07T02:33:13.641Z,18.15
2023-05-07T02:35:47.160Z,18.18
2023-05-07T02:38:21.995Z,18.19
2023-05-07T02:40:56.193Z,18.12
2023-05-07T02:43:29.170Z,18.13
2023-05-07T02:46:03.906Z,18.20
2023-05-07T02:48:37.376Z,18.17
2023-05-07T02:51:10.303Z,18.16
2023-05-07T02:53:45.252Z,18.21
2023-05-07T02:56:19.321Z,18.24
2023-05-07T02:58:52.214Z,18.21
2023-05-07T03:01:27.481Z,18.25
2023-05-07T03:04:12.526Z,18.19
2023-05-07T03:06:45.520Z,18.15
2023-05-07T03:09:18.634Z,18.14
2023-05-07T03:11:54.896Z,18.13
2023-05-07T03:14:28.010Z,18.21
2023-05-07T03:17:01.057Z,18.10
2023-05-07T03:19:45.467Z,18.10
2023-05-07T03:22:18.459Z,18.11
2023-05-07T03:24:51.399Z,18.12
2023-05-07T03:27:26.474Z,18.09
2023-05-07T03:30:01.070Z,18.12
2023-05-07T03:32:34.569Z,18.09
2023-05-07T03:35:08.138Z,18.03
2023-05-07T03:37:41.396Z,17.97
2023-05-07T03:40:15.258Z,18.00
2023-05-07T03:42:54.560Z,17.92
2023-05-07T03:45:30.467Z,17.90
2023-05-07T03:48:15.427Z,17.92
2023-05-07T03:50:49.460Z,17.93
2023-05-07T03:53:24.020Z,17.88
2023-05-07T03:55:57.397Z,17.84
2023-05-07T03:58:31.949Z,17.78
2023-05-07T04:01:09.638Z,17.76
2023-05-07T04:03:42.673Z,17.82
2023-05-07T04:06:17.571Z,17.79
2023-05-07T04:08:53.130Z,17.72
2023-05-07T04:11:26.131Z,17.73
2023-05-07T04:14:02.300Z,17.75
2023-05-07T04:16:44.196Z,17.76
2023-05-07T04:19:21.761Z,17.71
2023-05-07T04:21:58.476Z,17.81
2023-05-07T04:24:35.476Z,17.72
2023-05-07T04:27:09.539Z,17.75
2023-05-07T04:29:48.022Z,17.77
2023-05-07T04:32:22.134Z,17.77
2023-05-07T04:34:56.307Z,17.71
2023-05-07T04:37:29.230Z,17.72
2023-05-07T04:40:03.866Z,17.71
2023-05-07T04:42:37.439Z,17.68
2023-05-07T04:45:13.411Z,17.72
2023-05-07T04:47:48.778Z,17.69
2023-05-07T04:50:24.726Z,17.70
2023-05-07T04:52:59.462Z,17.70
2023-05-07T04:55:32.484Z,17.68
2023-05-07T04:58:05.934Z,17.72
2023-05-07T05:00:44.408Z,17.69
2023-05-07T05:03:17.366Z,17.76
2023-05-07T05:05:51.402Z,17.66
2023-05-07T05:08:24.377Z,17.68
2023-05-07T05:10:57.341Z,17.69
2023-05-07T05:13:31.284Z,17.70
2023-05-07T05:16:06.974Z,17.73
2023-05-07T05:18:40.017Z,17.73
2023-05-07T05:21:14.487Z,17.73
2023-05-07T05:23:48.669Z,17.73
2023-05-07T05:26:25.400Z,17.75
2023-05-07T05:28:58.220Z,17.75
2023-05-07T05:31:34.695Z,17.80
2023-05-07T05:34:07.599Z,17.82
2023-05-07T05:36:41.044Z,17.83
2023-05-07T05:39:14.201Z,17.83
2023-05-07T05:41:47.072Z,17.85
2023-05-07T05:44:20.951Z,17.84
2023-05-07T05:46:56.253Z,17.87
2023-05-07T05:49:29.287Z,17.88
2023-05-07T05:52:02.444Z,17.90
2023-05-07T05:54:35.549Z,17.92
2023-05-07T05:57:09.162Z,17.94
2023-05-07T05:59:42.141Z,17.93
2023-05-07T06:02:16.275Z,17.98
2023-05-07T06:04:49.326Z,18.01
2023-05-07T06:07:25.330Z,18.07
2023-05-07T06:09:58.464Z,18.09
2023-05-07T06:12:31.496Z,18.14
2023-05-07T06:15:04.810Z,18.25
2023-05-07T06:17:39.196Z,18.29
2023-05-07T06:20:15.824Z,18.27
2023-05-07T06:22:48.742Z,18.33
2023-05-07T06:25:22.740Z,18.35
2023-05-07T06:27:55.563Z,18.39
2023-05-07T06:30:29.890Z,18.37
2023-05-07T06:33:04.618Z,18.44
2023-05-07T06:35:37.654Z,18.48
2023-05-07T06:38:10.622Z,18.52
2023-05-07T06:40:43.468Z,18.52
2023-05-07T06:43:16.312Z,18.62
2023-05-07T06:45:56.589Z,18.67
2023-05-07T06:48:31.324Z,18.81
2023-05-07T06:51:09.020Z,18.97
2023-05-07T06:53:41.954Z,19.01
2023-05-07T06:56:18.439Z,19.21
2023-05-07T06:58:51.362Z,19.34
2023-05-07T07:01:27.908Z,19.37
2023-05-07T07:04:01.996Z,19.46
2023-05-07T07:06:36.497Z,19.54
2023-05-07T07:09:13.903Z,19.63
2023-05-07T07:11:47.643Z,19.63
2023-05-07T07:14:25.001Z,19.63
2023-05-07T07:17:00.048Z,19.64
2023-05-07T07:19:34.256Z,19.68
2023-05-07T07:22:09.545Z,19.76
2023-05-07T07:24:43.362Z,19.77
2023-05-07T07:27:23.059Z,19.81
2023-05-07T07:30:22.703Z,19.90
2023-05-07T07:33:05.618Z,19.99
2023-05-07T07:35:50.553Z,20.10
2023-05-07T07:38:26.586Z,20.13
2023-05-07T07:40:59.617Z,20.22
2023-05-07T07:43:32.339Z,20.29
2023-05-07T07:46:06.105Z,20.32
2023-05-07T07:48:39.751Z,20.39
2023-05-07T07:51:13.873Z,20.43
2023-05-07T07:53:46.871Z,20.49
2023-05-07T07:56:19.819Z,20.56
2023-05-07T07:58:53.133Z,20.60
2023-05-07T08:01:25.946Z,20.14
2023-05-07T08:04:00.155Z,19.84
2023-05-07T08:06:36.698Z,20.04
2023-05-07T08:09:10.317Z,20.40
2023-05-07T08:11:45.061Z,19.99
2023-05-07T08:14:18.065Z,20.44
2023-05-07T08:16:53.572Z,20.26
2023-05-07T08:19:26.601Z,20.18
2023-05-07T08:22:00.905Z,20.56
2023-05-07T08:24:33.959Z,21.21
2023-05-07T08:27:06.630Z,21.19
2023-05-07T08:29:39.715Z,21.37
2023-05-07T08:32:12.682Z,21.47
2023-05-07T08:34:45.511Z,21.37
2023-05-07T08:37:22.594Z,21.70
2023-05-07T08:39:55.802Z,22.10
2023-05-07T08:42:37.264Z,22.08
2023-05-07T08:45:12.014Z,22.51
2023-05-07T08:47:53.826Z,22.53
2023-05-07T08:50:28.616Z,22.83
2023-05-07T08:53:04.934Z,23.14
2023-05-07T08:55:42.780Z,23.28
2023-05-07T08:58:15.928Z,23.28
2023-05-07T09:00:49.270Z,23.36
2023-05-07T09:03:23.171Z,23.35
2023-05-07T09:05:58.627Z,23.47
2023-05-07T09:08:35.666Z,23.53
2023-05-07T09:11:10.944Z,23.48
2023-05-07T09:13:44.783Z,23.54
2023-05-07T09:16:18.471Z,23.58
2023-05-07T09:18:54.839Z,23.59
2023-05-07T09:21:28.672Z,23.56
2023-05-07T09:24:06.190Z,23.54
2023-05-07T09:26:43.498Z,23.48
2023-05-07T09:29:18.724Z,23.47
2023-05-07T09:31:52.195Z,23.48
2023-05-07T09:36:58.713Z,23.51
2023-05-07T09:39:42.653Z,23.53
2023-05-07T09:42:16.795Z,23.56
2023-05-07T09:44:50.038Z,23.77
2023-05-07T09:47:27.224Z,23.74
2023-05-07T09:50:04.283Z,23.77
2023-05-07T09:52:37.992Z,23.91
2023-05-07T09:55:14.936Z,23.95
2023-05-07T09:57:52.073Z,24.12
2023-05-07T10:00:26.387Z,24.25
2023-05-07T10:03:07.891Z,24.33
2023-05-07T10:05:49.224Z,24.56
2023-05-07T10:08:22.675Z,24.66
2023-05-07T10:11:01.419Z,24.88
2023-05-07T10:13:38.171Z,24.98
2023-05-07T10:16:13.850Z,25.26
2023-05-07T10:18:52.153Z,25.29
2023-05-07T10:21:30.057Z,25.27
2023-05-07T10:24:09.520Z,25.47
2023-05-07T10:26:46.174Z,25.58
2023-05-07T10:29:32.355Z,25.53
2023-05-07T10:32:28.115Z,25.52
2023-05-07T10:35:05.261Z,25.58
2023-05-07T10:37:39.145Z,25.64
2023-05-07T10:40:13.974Z,25.57
2023-05-07T10:42:57.907Z,25.48
2023-05-07T10:45:31.551Z,25.44
2023-05-07T10:50:50.878Z,25.60
2023-05-07T10:53:28.443Z,25.62
2023-05-07T10:56:29.828Z,25.70
2023-05-07T10:59:37.054Z,25.82
2023-05-07T11:02:19.870Z,25.80
2023-05-07T11:05:21.944Z,25.95
2023-05-07T11:08:03.000Z,26.05
2023-05-07T11:10:53.754Z,26.03
2023-05-07T11:13:46.223Z,26.13
2023-05-07T11:16:37.875Z,26.26
2023-05-07T11:19:52.237Z,26.12
2023-05-07T11:22:42.060Z,26.02
2023-05-07T11:25:32.019Z,26.14
2023-05-07T11:28:15.925Z,26.12
2023-05-07T11:31:01.895Z,26.14
2023-05-07T11:33:36.703Z,26.12
2023-05-07T11:36:12.112Z,26.16
2023-05-07T11:38:51.207Z,26.10
2023-05-07T11:41:24.164Z,25.96
2023-05-07T11:43:59.343Z,25.90
2023-05-07T11:46:32.362Z,25.83
2023-05-07T11:49:06.552Z,25.74
2023-05-07T11:51:41.682Z,25.69
2023-05-07T11:54:17.865Z,25.62
2023-05-07T11:56:51.291Z,25.69
2023-05-07T11:59:24.017Z,25.66
2023-05-07T12:02:00.156Z,25.68
2023-05-07T12:04:34.559Z,25.75
2023-05-07T12:07:07.438Z,25.81
2023-05-07T12:09:40.233Z,25.95
2023-05-07T12:12:13.830Z,26.03
2023-05-07T12:14:48.272Z,26.02
2023-05-07T12:17:21.387Z,26.04
2023-05-07T12:19:56.105Z,25.94
2023-05-07T12:22:29.040Z,25.85
2023-05-07T12:25:01.901Z,25.77
2023-05-07T12:27:38.887Z,25.89
2023-05-07T12:30:13.494Z,25.91
2023-05-07T12:32:47.753Z,26.07
2023-05-07T12:35:29.813Z,26.33
2023-05-07T12:38:09.741Z,26.29
2023-05-07T12:40:47.315Z,26.52
2023-05-07T12:43:20.914Z,26.57
2023-05-07T12:46:14.664Z,26.57
2023-05-07T12:48:53.382Z,26.59
2023-05-07T12:51:34.067Z,26.59
2023-05-07T12:54:08.673Z,27.00
2023-05-07T12:56:45.092Z,27.05
2023-05-07T12:59:18.206Z,27.02
2023-05-07T13:02:01.832Z,27.07
2023-05-07T13:04:34.935Z,27.04
2023-05-07T13:07:11.471Z,27.13
2023-05-07T13:09:45.489Z,27.07
2023-05-07T13:12:18.509Z,27.03
2023-05-07T13:14:51.616Z,26.99
2023-05-07T13:17:27.465Z,26.99
2023-05-07T13:20:02.796Z,27.24
2023-05-07T13:22:40.792Z,27.33
2023-05-07T13:28:23.147Z,27.55
2023-05-07T13:30:56.522Z,27.67
2023-05-07T13:33:29.626Z,27.85
2023-05-07T13:36:03.306Z,27.86
2023-05-07T13:38:37.649Z,27.99
2023-05-07T13:41:10.586Z,27.94
2023-05-07T13:43:43.494Z,27.98
2023-05-07T13:46:16.118Z,27.97
2023-05-07T13:48:48.943Z,27.92
2023-05-07T13:51:23.839Z,28.07
2023-05-07T13:53:59.518Z,28.11
2023-05-07T13:56:33.466Z,28.22
2023-05-07T13:59:06.522Z,28.30
2023-05-07T14:01:39.397Z,28.40
2023-05-07T14:04:12.535Z,28.48
2023-05-07T14:06:45.426Z,28.61
2023-05-07T14:09:19.419Z,28.70
2023-05-07T14:11:53.505Z,28.79
2023-05-07T14:14:26.421Z,28.96
2023-05-07T14:16:59.446Z,28.88
2023-05-07T14:19:32.766Z,28.85
2023-05-07T14:22:05.698Z,28.90
2023-05-07T14:24:42.712Z,28.95
2023-05-07T14:27:15.956Z,28.97
2023-05-07T14:29:54.224Z,28.94
2023-05-07T14:32:27.054Z,29.03
2023-05-07T14:35:00.181Z,29.12
2023-05-07T14:37:33.437Z,29.21
2023-05-07T14:40:12.086Z,29.21
2023-05-07T14:42:45.989Z,29.37
2023-05-07T14:45:18.968Z,29.42
2023-05-07T14:47:51.797Z,29.49
2023-05-07T14:50:24.517Z,29.47
2023-05-07T14:52:58.482Z,29.51
2023-05-07T14:55:36.296Z,29.59
2023-05-07T14:58:12.509Z,29.60
2023-05-07T15:00:46.988Z,29.76
2023-05-07T15:03:20.257Z,29.75
2023-05-07T15:05:58.777Z,29.71
2023-05-07T15:08:32.126Z,29.84
2023-05-07T15:11:06.691Z,29.88
2023-05-07T15:13:41.737Z,29.97
2023-05-07T15:16:15.437Z,29.90
2023-05-07T15:19:05.361Z,29.90
2023-05-07T15:21:40.466Z,29.81
2023-05-07T15:24:13.604Z,29.66
2023-05-07T15:26:48.938Z,29.57
2023-05-07T15:29:24.622Z,29.56
2023-05-07T15:32:00.064Z,29.40
2023-05-07T15:34:40.185Z,29.40
2023-05-07T15:37:22.473Z,29.17
2023-05-07T15:39:58.099Z,28.88
2023-05-07T15:42:40.536Z,28.71
2023-05-07T15:45:14.165Z,28.74
2023-05-07T15:47:59.372Z,28.63
2023-05-07T15:50:33.139Z,28.56
2023-05-07T15:53:28.233Z,28.46
2023-05-07T15:56:18.315Z,28.31
2023-05-07T15:59:06.478Z,28.21
2023-05-07T16:01:41.117Z,28.11
2023-05-07T16:04:14.135Z,28.13
2023-05-07T16:07:22.782Z,28.07
2023-05-07T16:09:55.690Z,28.06
2023-05-07T16:12:28.662Z,28.06
2023-05-07T16:15:09.307Z,28.11
2023-05-07T16:17:42.580Z,28.00
2023-05-07T16:20:20.058Z,27.90
2023-05-07T16:22:53.914Z,27.87
2023-05-07T16:25:27.013Z,27.85
2023-05-07T16:27:59.981Z,27.76
2023-05-07T16:30:34.494Z,27.69
2023-05-07T16:33:20.925Z,27.71
2023-05-07T16:35:57.091Z,27.58
2023-05-07T16:38:33.103Z,27.59
2023-05-07T16:41:07.147Z,27.55
2023-05-07T16:43:40.244Z,27.44
2023-05-07T16:46:15.959Z,27.39
2023-05-07T16:48:52.428Z,27.31
2023-05-07T16:51:30.490Z,27.31
2023-05-07T16:54:03.748Z,27.17
2023-05-07T16:56:36.615Z,27.25
2023-05-07T16:59:09.940Z,27.12
2023-05-07T17:01:44.411Z,27.05
2023-05-07T17:04:17.385Z,27.03
2023-05-07T17:06:50.217Z,26.96
2023-05-07T17:09:23.166Z,26.96
2023-05-07T17:11:56.117Z,27.04
2023-05-07T17:14:29.171Z,27.04
2023-05-07T17:17:03.417Z,26.96
2023-05-07T17:19:40.039Z,26.87
2023-05-07T17:22:13.310Z,26.72
2023-05-07T17:24:46.467Z,26.63
2023-05-07T17:27:23.515Z,26.74
2023-05-07T17:29:56.479Z,26.68
2023-05-07T17:32:32.867Z,26.66
2023-05-07T17:35:06.904Z,26.53
2023-05-07T17:37:40.175Z,26.49
2023-05-07T17:40:14.022Z,26.40
2023-05-07T17:42:50.360Z,26.41
2023-05-07T17:45:25.093Z,26.44
2023-05-07T17:47:59.421Z,26.35
2023-05-07T17:50:32.598Z,26.31
2023-05-07T17:53:06.106Z,26.27
2023-05-07T17:55:45.481Z,26.17
2023-05-07T18:01:26.888Z,26.08
2023-05-07T18:19:05.250Z,25.64
2023-05-07T18:21:50.159Z,25.56
2023-05-07T18:24:27.545Z,25.52
2023-05-07T18:27:03.464Z,25.48
2023-05-07T18:29:37.840Z,25.40
2023-05-07T18:32:10.863Z,25.37
2023-05-07T18:34:45.460Z,25.31
2023-05-07T18:37:18.515Z,25.02
2023-05-07T18:40:03.356Z,25.09
2023-05-07T18:45:48.262Z,25.02
2023-05-07T18:48:26.523Z,24.87
2023-05-07T18:51:16.543Z,24.84
2023-05-07T18:56:50.448Z,24.65
2023-05-07T18:59:23.342Z,24.63
2023-05-07T19:01:58.916Z,24.53
2023-05-07T19:04:32.111Z,24.51
2023-05-07T19:07:06.656Z,24.45
2023-05-07T19:09:43.893Z,24.42
2023-05-07T19:12:21.552Z,24.30
2023-05-07T19:14:56.475Z,24.25
2023-05-07T19:17:29.340Z,24.20
2023-05-07T19:20:02.266Z,24.19
2023-05-07T19:22:36.549Z,24.13
2023-05-07T19:25:13.595Z,24.08
2023-05-07T19:27:47.294Z,23.99
2023-05-07T19:30:20.424Z,23.90
2023-05-07T19:32:58.390Z,23.82
2023-05-07T19:35:43.915Z,23.73
2023-05-07T19:38:23.864Z,23.66
2023-05-07T19:41:03.157Z,23.58
2023-05-07T19:43:59.627Z,23.54
2023-05-07T19:46:33.205Z,23.50
2023-05-07T19:49:06.863Z,23.43
2023-05-07T19:51:40.479Z,23.37
2023-05-07T19:54:15.471Z,23.34
2023-05-07T19:56:48.742Z,23.28
2023-05-07T19:59:26.103Z,23.21
2023-05-07T20:02:00.183Z,23.18
2023-05-07T20:04:37.917Z,23.13
2023-05-07T20:07:14.092Z,23.03
2023-05-07T20:09:49.202Z,22.99
2023-05-07T20:12:24.581Z,22.94
2023-05-07T20:14:57.947Z,22.85
2023-05-07T20:17:30.934Z,22.79
2023-05-07T20:20:05.726Z,22.67
2023-05-07T20:22:39.028Z,22.69
2023-05-07T20:25:18.408Z,22.63
2023-05-07T20:27:51.495Z,22.65
2023-05-07T20:30:24.908Z,22.57
2023-05-07T20:32:58.066Z,22.56
2023-05-07T20:35:31.134Z,22.48
2023-05-07T20:38:04.667Z,22.44
2023-05-07T20:40:42.016Z,22.39
2023-05-07T20:43:17.173Z,22.40
2023-05-07T20:45:50.395Z,22.28
2023-05-07T20:48:23.370Z,22.30
2023-05-07T20:50:56.836Z,22.22
2023-05-07T20:53:30.878Z,22.19
2023-05-07T20:56:05.728Z,22.10
2023-05-07T20:58:38.597Z,22.06
2023-05-07T21:01:11.332Z,21.97
2023-05-07T21:03:44.350Z,21.99
2023-05-07T21:06:19.348Z,21.94
2023-05-07T21:08:52.369Z,21.92
2023-05-07T21:11:29.032Z,21.89
2023-05-07T21:14:04.158Z,21.86
2023-05-07T21:16:37.230Z,21.76
2023-05-07T21:19:10.315Z,21.74
2023-05-07T21:21:43.746Z,21.69
2023-05-07T21:24:16.649Z,21.69
2023-05-07T21:26:50.746Z,21.67
2023-05-07T21:29:25.475Z,21.63
2023-05-07T21:31:58.758Z,21.56
2023-05-07T21:34:31.564Z,21.49
2023-05-07T21:37:05.681Z,21.40
2023-05-07T21:39:38.429Z,21.44
2023-05-07T21:42:14.057Z,21.43
2023-05-07T21:44:46.882Z,21.40
2023-05-07T21:47:25.751Z,21.38
2023-05-07T21:50:01.566Z,21.40
2023-05-07T21:52:37.578Z,21.33
2023-05-07T21:55:15.240Z,21.30
2023-05-07T21:58:05.932Z,21.24
2023-05-07T22:00:39.225Z,21.27
2023-05-07T22:03:12.089Z,21.20
2023-05-07T22:05:45.121Z,21.16
2023-05-07T22:08:24.399Z,21.09
2023-05-07T22:11:06.286Z,21.14
2023-05-07T22:13:43.519Z,21.17
2023-05-07T22:16:17.097Z,21.06
2023-05-07T22:18:50.733Z,21.00
2023-05-07T22:21:23.669Z,20.98
2023-05-07T22:23:56.889Z,20.91
2023-05-07T22:26:30.140Z,20.87
2023-05-07T22:29:04.492Z,20.91
2023-05-07T22:31:38.378Z,20.86
2023-05-07T22:34:12.384Z,20.70
2023-05-07T22:36:48.358Z,20.73
2023-05-07T22:39:21.192Z,20.67
2023-05-07T22:41:53.864Z,20.74
2023-05-07T22:44:28.655Z,20.68
2023-05-07T22:47:05.825Z,20.62
2023-05-07T22:53:02.218Z,20.52
2023-05-07T22:55:35.288Z,20.47
2023-05-07T22:58:15.900Z,20.48
2023-05-07T23:00:51.097Z,20.42
2023-05-07T23:03:24.512Z,20.39
2023-05-07T23:05:58.682Z,20.38
2023-05-07T23:08:35.569Z,20.38
2023-05-07T23:11:24.560Z,20.37
2023-05-07T23:14:23.857Z,20.32
2023-05-07T23:17:02.918Z,20.27
2023-05-07T23:19:35.773Z,20.21
2023-05-07T23:22:08.512Z,20.18
2023-05-07T23:24:42.642Z,20.00
2023-05-07T23:27:16.157Z,20.05
2023-05-07T23:29:48.955Z,20.01
2023-05-07T23:32:24.426Z,20.04
2023-05-07T23:34:57.579Z,19.92
2023-05-07T23:37:30.479Z,19.85
2023-05-07T23:40:05.148Z,19.76
2023-05-07T23:42:38.157Z,19.70
2023-05-07T23:45:11.481Z,19.67
2023-05-07T23:47:46.276Z,19.64
2023-05-07T23:50:19.087Z,19.52
2023-05-07T23:52:51.856Z,19.46
2023-05-07T23:55:24.690Z,19.49
2023-05-07T23:57:57.458Z,19.54
